Time;durP1;ratioP1;P1;durP2;ratioP2;P2;SDS_P1;SDS_P2;PMS_P1;PMS_P2;Temp;Humidity;BMP_temperature;BMP_pressure;BME280_temperature;BME280_humidity;BME280_pressure;Samples;Min_cycle;Max_cycle;Signal;HPM_P1;HPM_P2
2023/10/27 00:00:37;;;;;;;7.50;1.73;;;;;;;19.18;100.00;97136.31;5005130;28;20042;-94
2023/10/27 00:03:03;;;;;;;5.40;1.48;;;;;;;19.24;100.00;97139.34;5003621;28;20081;-94
2023/10/27 00:05:30;;;;;;;6.65;1.80;;;;;;;19.41;100.00;97145.94;5006515;28;20062;-93
2023/10/27 00:07:56;;;;;;;6.80;1.35;;;;;;;19.33;100.00;97115.25;5007319;28;20038;-93
2023/10/27 00:10:22;;;;;;;8.35;1.60;;;;;;;19.22;100.00;97090.09;5025063;28;20042;-95
2023/10/27 00:12:48;;;;;;;10.05;2.13;;;;;;;19.37;100.00;97092.44;5008280;28;20411;-94
2023/10/27 00:15:16;;;;;;;7.75;1.27;;;;;;;19.80;100.00;97143.38;5008975;28;20113;-93
2023/10/27 00:17:43;;;;;;;12.80;1.35;;;;;;;19.57;100.00;97128.38;5008474;28;20041;-94
2023/10/27 00:20:09;;;;;;;6.03;1.75;;;;;;;19.48;100.00;97101.25;5011356;28;20386;-93
2023/10/27 00:22:35;;;;;;;6.63;1.40;;;;;;;19.33;100.00;97067.59;5026045;28;20076;-93
2023/10/27 00:25:02;;;;;;;10.52;1.58;;;;;;;19.48;100.00;97079.69;5025437;28;20068;-95
2023/10/27 00:27:28;;;;;;;5.20;1.02;;;;;;;19.75;100.00;97110.53;5060009;28;20037;-95
2023/10/27 00:29:54;;;;;;;7.22;1.13;;;;;;;19.76;100.00;97114.13;5027467;28;20049;-94
2023/10/27 00:32:21;;;;;;;8.65;1.63;;;;;;;19.96;100.00;97120.38;5025523;28;20491;-94
2023/10/27 00:34:47;;;;;;;3.72;0.98;;;;;;;19.57;100.00;97074.44;5060111;28;20105;-94
2023/10/27 00:37:13;;;;;;;10.50;1.17;;;;;;;19.46;100.00;97068.19;5023321;28;20049;-94
2023/10/27 00:39:40;;;;;;;6.22;1.05;;;;;;;19.67;100.00;97096.91;5018014;28;20072;-95
2023/10/27 00:42:06;;;;;;;6.15;1.17;;;;;;;19.49;100.00;97056.25;5026413;28;20045;-95
2023/10/27 00:44:32;;;;;;;6.95;1.73;;;;;;;19.48;100.00;97055.41;5043492;28;20052;-93
2023/10/27 00:46:59;;;;;;;12.48;1.75;;;;;;;19.58;100.00;97060.84;5025480;28;20074;-92
2023/10/27 00:49:28;;;;;;;8.13;1.23;;;;;;;19.81;100.00;97088.41;5022495;28;20045;-92
2023/10/27 00:51:54;;;;;;;5.35;1.20;;;;;;;19.85;100.00;97097.09;5024027;28;20049;-93
2023/10/27 00:54:21;;;;;;;15.25;1.80;;;;;;;19.55;100.00;97038.69;5020680;28;20064;-92
2023/10/27 00:56:49;;;;;;;7.00;1.38;;;;;;;19.82;100.00;97064.97;4999470;28;20055;-92
2023/10/27 00:59:16;;;;;;;9.25;1.58;;;;;;;19.61;100.00;97021.94;4987074;28;20399;-94
2023/10/27 01:01:43;;;;;;;9.45;1.77;;;;;;;19.79;100.00;97035.59;4988236;28;20042;-94
2023/10/27 01:04:09;;;;;;;6.07;1.13;;;;;;;19.93;100.00;97048.69;4988195;28;20038;-95
2023/10/27 01:06:36;;;;;;;5.60;1.10;;;;;;;19.81;100.00;97030.94;4993674;28;20057;-93
2023/10/27 01:09:02;;;;;;;11.73;1.27;;;;;;;19.55;100.00;97012.56;5006762;28;20478;-93
2023/10/27 01:11:29;;;;;;;3.78;1.17;;;;;;;19.56;100.00;97016.09;5008411;28;20041;-95
2023/10/27 01:13:55;;;;;;;8.95;1.77;;;;;;;19.41;100.00;96997.66;5006939;28;20069;-93
2023/10/27 01:16:22;;;;;;;8.57;2.35;;;;;;;19.54;100.00;97028.88;5005743;28;20046;-94
2023/10/27 01:18:48;;;;;;;8.85;1.77;;;;;;;19.27;100.00;97004.28;5005220;28;20042;-95
2023/10/27 01:21:14;;;;;;;8.55;1.73;;;;;;;19.32;100.00;96990.41;5005507;28;20052;-94
2023/10/27 01:23:41;;;;;;;11.93;1.55;;;;;;;19.76;100.00;97062.88;5006233;28;20546;-95
2023/10/27 01:26:07;;;;;;;6.43;1.25;;;;;;;19.40;100.00;97016.66;5005149;28;20100;-93
2023/10/27 01:28:33;;;;;;;5.72;1.55;;;;;;;19.36;100.00;97007.16;5006254;28;20057;-93
2023/10/27 01:30:59;;;;;;;7.35;1.10;;;;;;;19.24;100.00;96995.66;5004867;28;20072;-93
2023/10/27 01:33:25;;;;;;;10.93;1.52;;;;;;;19.24;100.00;96984.88;5005891;28;20041;-95
2023/10/27 01:35:52;;;;;;;7.57;1.27;;;;;;;19.49;100.00;97015.81;5006070;28;20459;-95
2023/10/27 01:38:18;;;;;;;10.90;2.00;;;;;;;19.42;100.00;96985.88;4987067;28;20054;-94
2023/10/27 01:40:46;;;;;;;9.18;1.60;;;;;;;19.62;100.00;96993.97;4998998;28;20042;-94
2023/10/27 01:43:12;;;;;;;9.18;1.50;;;;;;;19.35;100.00;96962.34;5001533;28;20081;-93
2023/10/27 01:45:38;;;;;;;8.82;1.63;;;;;;;19.54;100.00;97007.31;5002405;28;20462;-94
2023/10/27 01:48:05;;;;;;;6.22;1.48;;;;;;;19.64;100.00;97024.34;5006048;28;20066;-93
2023/10/27 01:50:31;;;;;;;11.43;1.63;;;;;;;19.69;100.00;97028.38;5021500;28;20045;-95
2023/10/27 01:52:57;;;;;;;9.75;2.22;;;;;;;19.30;100.00;96970.84;5005297;28;20038;-92
2023/10/27 01:55:24;;;;;;;6.18;1.60;;;;;;;19.28;100.00;96973.69;5003611;28;20042;-94
2023/10/27 01:57:51;;;;;;;8.98;1.40;;;;;;;19.25;100.00;96927.28;5013711;28;20057;-94
2023/10/27 02:00:17;;;;;;;15.88;2.13;;;;;;;19.30;100.00;96930.44;5017471;28;20137;-93
2023/10/27 02:02:43;;;;;;;7.55;1.48;;;;;;;19.43;100.00;96957.94;5014726;28;20038;-92
2023/10/27 02:05:09;;;;;;;13.18;1.77;;;;;;;19.60;100.00;96991.41;4991909;28;20480;-93
2023/10/27 02:07:35;;;;;;;8.93;1.60;;;;;;;19.41;100.00;96957.25;5045766;28;20038;-93
2023/10/27 02:10:01;;;;;;;10.25;1.90;;;;;;;19.50;100.00;96994.13;5049804;28;20041;-92
2023/10/27 02:12:27;;;;;;;12.60;1.73;;;;;;;19.62;100.00;96994.81;5018387;28;20507;-93
2023/10/27 02:14:54;;;;;;;10.65;1.70;;;;;;;19.47;100.00;96975.53;5019229;28;20046;-93
2023/10/27 02:17:20;;;;;;;8.95;1.88;;;;;;;19.32;100.00;96954.53;5017124;28;20183;-94
2023/10/27 02:19:47;;;;;;;11.07;1.45;;;;;;;19.45;100.00;96950.56;5018917;28;20472;-93
2023/10/27 02:22:13;;;;;;;13.85;2.33;;;;;;;19.18;100.00;96910.81;5018077;28;20148;-93
2023/10/27 02:24:39;;;;;;;8.70;2.03;;;;;;;19.42;100.00;96950.00;5017084;28;20133;-92
2023/10/27 02:27:05;;;;;;;12.90;2.00;;;;;;;19.23;100.00;96924.72;5016553;28;20040;-92
2023/10/27 02:29:31;;;;;;;8.65;1.38;;;;;;;19.31;100.00;96924.03;5016087;28;20045;-93
2023/10/27 02:31:58;;;;;;;9.35;1.83;;;;;;;19.46;100.00;96933.38;5015358;28;20038;-93
2023/10/27 02:34:24;;;;;;;12.20;2.28;;;;;;;19.39;100.00;96928.72;5049232;28;20525;-93
2023/10/27 02:36:50;;;;;;;6.60;1.30;;;;;;;19.29;100.00;96893.69;5015947;28;20442;-93
2023/10/27 02:39:16;;;;;;;8.73;1.52;;;;;;;19.26;100.00;96892.13;5015702;28;20049;-93
2023/10/27 02:41:42;;;;;;;6.53;1.67;;;;;;;19.48;100.00;96928.72;5015810;28;20041;-93
2023/10/27 02:44:09;;;;;;;5.53;1.40;;;;;;;19.22;100.00;96879.06;5038449;28;20041;-93
2023/10/27 02:46:35;;;;;;;4.63;1.52;;;;;;;19.39;100.00;96901.78;5015208;28;20056;-94
2023/10/27 02:49:04;;;;;;;6.07;1.50;;;;;;;19.16;100.00;96871.56;5015348;28;20125;-94
2023/10/27 02:51:30;;;;;;;9.45;1.95;;;;;;;19.37;100.00;96901.06;5016583;28;20049;-95
2023/10/27 02:53:56;;;;;;;7.75;1.67;;;;;;;19.36;100.00;96904.72;5049504;28;20073;-94
2023/10/27 02:56:22;;;;;;;10.32;1.63;;;;;;;19.57;100.00;96940.47;5016949;28;20050;-94
2023/10/27 02:58:49;;;;;;;13.35;2.17;;;;;;;19.43;100.00;96928.28;5020501;28;20069;-94
2023/10/27 03:01:15;;;;;;;8.57;1.55;;;;;;;19.42;100.00;96933.81;5019754;28;20052;-93
2023/10/27 03:03:41;;;;;;;7.63;1.67;;;;;;;19.40;100.00;96925.03;5036741;28;20037;-93
2023/10/27 03:06:10;;;;;;;7.10;1.85;;;;;;;19.28;100.00;96895.53;5020213;28;20037;-94
2023/10/27 03:08:37;;;;;;;11.18;1.95;;;;;;;19.18;100.00;96881.19;5020645;28;20034;-93
2023/10/27 03:11:03;;;;;;;12.05;2.05;;;;;;;19.28;100.00;96897.38;5021388;28;20049;-93
2023/10/27 03:13:30;;;;;;;11.00;1.85;;;;;;;19.34;100.00;96907.56;5021936;28;20044;-94
2023/10/27 03:15:57;;;;;;;7.63;1.58;;;;;;;18.92;100.00;96848.56;5020995;28;20459;-93
2023/10/27 03:18:23;;;;;;;12.65;1.80;;;;;;;19.09;100.00;96907.13;5020983;28;20053;-92
2023/10/27 03:20:55;;;;;;;5.45;1.60;;;;;;;19.22;100.00;96925.72;5023062;28;20045;-92
2023/10/27 03:23:22;;;;;;;12.95;3.08;;;;;;;19.15;100.00;96919.22;5022660;28;20110;-94
2023/10/27 03:25:48;;;;;;;10.68;1.67;;;;;;;19.03;100.00;96913.06;5022646;28;20065;-93
2023/10/27 03:28:14;;;;;;;10.65;1.90;;;;;;;18.61;100.00;96872.03;5020014;28;20052;-93
2023/10/27 03:30:40;;;;;;;5.22;1.77;;;;;;;18.60;100.00;96871.16;5050617;28;20498;-93
2023/10/27 03:33:06;;;;;;;11.13;2.08;;;;;;;18.81;100.00;96891.78;5039939;28;20077;-92
2023/10/27 03:35:32;;;;;;;9.00;1.55;;;;;;;18.71;100.00;96888.19;5023219;28;20095;-92
2023/10/27 03:37:59;;;;;;;5.85;1.95;;;;;;;18.99;100.00;96927.81;5022474;28;20041;-93
2023/10/27 03:40:27;;;;;;;7.32;1.45;;;;;;;18.80;100.00;96882.88;5025378;28;20042;-93
2023/10/27 03:42:53;;;;;;;10.20;1.50;;;;;;;19.03;100.00;96923.84;5043269;28;20068;-95
2023/10/27 03:45:19;;;;;;;9.98;1.60;;;;;;;19.07;100.00;96935.22;5025731;28;20041;-95
2023/10/27 03:47:45;;;;;;;10.40;1.85;;;;;;;18.85;100.00;96907.53;5025695;28;20045;-93
2023/10/27 03:50:11;;;;;;;10.18;1.38;;;;;;;18.99;100.00;96945.81;5022190;28;20054;-93
2023/10/27 03:52:37;;;;;;;11.43;2.00;;;;;;;18.88;100.00;96930.63;5004565;28;20042;-93
2023/10/27 03:55:03;;;;;;;8.65;1.70;;;;;;;19.04;100.00;96939.03;5024200;28;20038;-95
2023/10/27 03:57:34;;;;;;;6.38;1.67;;;;;;;18.97;100.00;96916.31;5025480;28;20087;-93
2023/10/27 03:59:59;;;;;;;7.18;1.35;;;;;;;18.87;100.00;96886.69;5026132;28;20043;-95
2023/10/27 04:02:25;;;;;;;9.45;1.40;;;;;;;19.11;100.00;96933.94;5028288;28;20475;-94
2023/10/27 04:04:51;;;;;;;5.05;1.30;;;;;;;18.72;100.00;96871.06;5030009;28;20496;-93
2023/10/27 04:07:17;;;;;;;7.93;1.67;;;;;;;19.04;100.00;96908.53;5027281;28;20042;-93
2023/10/27 04:09:43;;;;;;;14.98;2.05;;;;;;;19.05;100.00;96921.03;5031494;28;20037;-91
2023/10/27 04:12:09;;;;;;;8.20;1.20;;;;;;;18.81;100.00;96871.09;5027679;28;20046;-92
2023/10/27 04:14:36;;;;;;;9.13;1.25;;;;;;;19.03;100.00;96879.91;5048925;28;20042;-93
2023/10/27 04:17:03;;;;;;;5.72;1.10;;;;;;;19.03;100.00;96880.75;5059859;28;20048;-93
2023/10/27 04:19:29;;;;;;;7.20;1.67;;;;;;;18.75;100.00;96820.44;5031469;28;20117;-93
2023/10/27 04:21:55;;;;;;;8.75;1.80;;;;;;;19.13;100.00;96880.78;5031804;28;20030;-93
2023/10/27 04:24:21;;;;;;;5.95;1.67;;;;;;;19.12;100.00;96848.56;5041982;28;20132;-94
2023/10/27 04:26:47;;;;;;;9.02;2.10;;;;;;;19.21;100.00;96836.94;5021351;28;20646;-93
2023/10/27 04:29:13;;;;;;;10.68;1.45;;;;;;;19.00;100.00;96813.72;5025401;28;20049;-93
2023/10/27 04:31:40;;;;;;;14.23;1.52;;;;;;;19.22;100.00;96823.31;5024810;28;20402;-94
2023/10/27 04:34:06;;;;;;;10.82;1.55;;;;;;;19.42;100.00;96859.19;5029587;28;20443;-94
2023/10/27 04:36:32;;;;;;;8.20;1.83;;;;;;;19.56;100.00;96859.72;5025499;28;20056;-93
2023/10/27 04:38:58;;;;;;;4.97;1.17;;;;;;;19.20;100.00;96805.59;5023890;28;20047;-95
2023/10/27 04:41:25;;;;;;;8.13;1.60;;;;;;;19.44;100.00;96846.41;5024986;28;20136;-93
2023/10/27 04:43:51;;;;;;;11.55;1.20;;;;;;;19.24;100.00;96828.59;5042113;28;20041;-94
2023/10/27 04:46:17;;;;;;;5.38;1.20;;;;;;;19.47;100.00;96866.84;5047929;28;20052;-92
2023/10/27 04:48:44;;;;;;;10.30;1.27;;;;;;;19.21;100.00;96799.22;5024676;28;20498;-94
2023/10/27 04:51:10;;;;;;;6.40;1.13;;;;;;;19.44;100.00;96846.41;5025224;28;20046;-95
2023/10/27 04:53:36;;;;;;;8.30;1.45;;;;;;;19.46;100.00;96833.66;5026273;28;20068;-95
2023/10/27 04:56:02;;;;;;;4.05;1.00;;;;;;;19.23;100.00;96800.75;5050714;28;20038;-93
2023/10/27 04:58:28;;;;;;;7.78;1.70;;;;;;;19.54;100.00;96851.81;5024763;28;20060;-93
2023/10/27 05:00:54;;;;;;;8.73;1.50;;;;;;;19.44;100.00;96834.78;5027268;28;20491;-94
2023/10/27 05:03:20;;;;;;;7.72;1.73;;;;;;;19.24;100.00;96785.47;5025205;28;20045;-95
2023/10/27 05:05:47;;;;;;;6.88;1.25;;;;;;;19.59;100.00;96832.50;5025214;28;20400;-95
2023/10/27 05:08:13;;;;;;;9.63;1.75;;;;;;;19.38;100.00;96782.31;5022693;28;20042;-94
2023/10/27 05:10:40;;;;;;;9.43;1.55;;;;;;;19.40;100.00;96791.09;5026740;28;20121;-94
2023/10/27 05:13:06;;;;;;;7.47;1.42;;;;;;;19.55;100.00;96823.00;5023141;28;20037;-92
2023/10/27 05:15:32;;;;;;;8.52;1.10;;;;;;;19.55;100.00;96825.69;5021184;28;20041;-94
2023/10/27 05:18:04;;;;;;;8.90;1.10;;;;;;;19.75;100.00;96846.25;5021457;28;20136;-92
2023/10/27 05:20:30;;;;;;;11.25;1.17;;;;;;;19.67;100.00;96843.41;5015859;28;20041;-94
2023/10/27 05:22:58;;;;;;;10.15;1.58;;;;;;;19.40;100.00;96793.78;5023366;28;20040;-93
2023/10/27 05:25:25;;;;;;;8.82;1.25;;;;;;;19.75;100.00;96858.88;5022376;28;20441;-93
2023/10/27 05:27:51;;;;;;;8.63;1.40;;;;;;;19.34;100.00;96774.66;5023576;28;20575;-93
2023/10/27 05:30:17;;;;;;;13.55;1.80;;;;;;;19.23;100.00;96775.66;5040500;28;20092;-94
2023/10/27 05:32:43;;;;;;;21.85;3.08;;;;;;;19.24;100.00;96772.00;5024603;28;20037;-95
2023/10/27 05:35:09;;;;;;;6.82;1.73;;;;;;;19.49;100.00;96825.25;5039957;28;20048;-94
2023/10/27 05:37:34;;;;;;;8.57;1.23;;;;;;;19.11;100.00;96791.16;5025205;28;20025;-93
2023/10/27 05:40:02;;;;;;;7.82;2.33;;;;;;;19.40;100.00;96850.41;5022363;28;20037;-94
2023/10/27 05:42:29;;;;;;;9.68;1.45;;;;;;;19.17;100.00;96820.22;5021113;28;20041;-94
2023/10/27 05:44:55;;;;;;;6.80;1.70;;;;;;;19.24;100.00;96836.66;5022114;28;20046;-94
2023/10/27 05:47:22;;;;;;;8.13;1.95;;;;;;;19.04;100.00;96811.56;5023061;28;20049;-93
2023/10/27 05:49:50;;;;;;;8.32;1.70;;;;;;;19.02;100.00;96835.13;5058043;28;20046;-94
2023/10/27 05:52:16;;;;;;;10.95;1.75;;;;;;;19.06;100.00;96853.56;5022611;28;20045;-94
2023/10/27 05:54:43;;;;;;;6.30;1.42;;;;;;;19.26;100.00;96880.50;5051805;28;20484;-93
2023/10/27 05:57:10;;;;;;;10.45;1.60;;;;;;;19.34;100.00;96885.16;5019048;28;20042;-94
2023/10/27 05:59:36;;;;;;;8.18;2.08;;;;;;;19.16;100.00;96863.47;5040578;28;20095;-94
2023/10/27 06:02:02;;;;;;;11.32;1.95;;;;;;;18.92;100.00;96832.41;5035073;28;20435;-94
2023/10/27 06:04:28;;;;;;;10.27;1.88;;;;;;;19.17;100.00;96868.72;5017990;28;20137;-93
2023/10/27 06:06:54;;;;;;;10.48;2.47;;;;;;;18.84;100.00;96818.78;5017947;28;20065;-93
2023/10/27 06:09:20;;;;;;;12.50;1.42;;;;;;;19.02;100.00;96844.03;5042935;28;20048;-94
2023/10/27 06:11:46;;;;;;;7.95;1.75;;;;;;;19.36;100.00;96892.09;5051340;28;20046;-91
2023/10/27 06:14:13;;;;;;;9.48;1.55;;;;;;;19.01;100.00;96818.09;5019430;28;20091;-94
2023/10/27 06:16:39;;;;;;;12.35;2.03;;;;;;;19.07;100.00;96836.38;5017614;28;20060;-93
2023/10/27 06:19:05;;;;;;;18.13;3.22;;;;;;;19.29;100.00;96885.59;5016878;28;20058;-94
2023/10/27 06:21:31;;;;;;;7.10;1.45;;;;;;;19.46;100.00;96919.91;5018409;28;20041;-94
2023/10/27 06:23:57;;;;;;;10.02;2.03;;;;;;;19.40;100.00;96908.84;5015425;28;20066;-93
2023/10/27 06:26:23;;;;;;;8.55;1.38;;;;;;;19.36;100.00;96894.78;5016028;28;20152;-94
2023/10/27 06:28:49;;;;;;;5.65;1.55;;;;;;;19.47;100.00;96910.84;5014754;28;20161;-94
2023/10/27 06:31:16;;;;;;;14.18;1.90;;;;;;;19.54;100.00;96930.00;5035006;28;20132;-92
2023/10/27 06:33:42;;;;;;;8.90;1.98;;;;;;;19.05;100.00;96859.91;5019456;28;20072;-93
2023/10/27 06:36:08;;;;;;;8.30;1.50;;;;;;;19.37;100.00;96910.00;5017205;28;20041;-96
2023/10/27 06:38:34;;;;;;;13.48;1.83;;;;;;;19.20;100.00;96891.84;5048222;28;20073;-95
2023/10/27 06:41:00;;;;;;;11.93;2.03;;;;;;;19.28;100.00;96897.38;5019331;28;20046;-93
2023/10/27 06:43:27;;;;;;;8.45;2.10;;;;;;;19.35;100.00;96933.53;5019937;28;20038;-95
2023/10/27 06:45:53;;;;;;;7.25;1.70;;;;;;;19.57;100.00;96953.97;5019128;28;20068;-94
2023/10/27 06:48:20;;;;;;;8.90;2.28;;;;;;;19.52;100.00;96958.06;5018930;28;20054;-95
2023/10/27 06:50:46;;;;;;;12.98;1.85;;;;;;;19.57;100.00;96955.81;5018574;28;20069;-92
2023/10/27 06:53:12;;;;;;;6.53;1.67;;;;;;;19.35;100.00;96925.44;5017587;28;20061;-96
2023/10/27 06:55:38;;;;;;;6.80;1.63;;;;;;;19.17;100.00;96897.50;5025568;28;20475;-94
2023/10/27 06:58:04;;;;;;;16.30;2.30;;;;;;;19.13;100.00;96901.44;5026689;28;20046;-94
2023/10/27 07:00:30;;;;;;;11.63;2.30;;;;;;;19.28;100.00;96938.66;5019432;28;20113;-94
2023/10/27 07:02:56;;;;;;;12.02;2.33;;;;;;;19.53;100.00;96965.19;5024503;28;20069;-95
2023/10/27 07:05:24;;;;;;;11.30;1.77;;;;;;;19.14;100.00;96887.00;5022621;28;20045;-95
2023/10/27 07:07:50;;;;;;;8.90;2.08;;;;;;;19.00;100.00;96886.44;5017714;28;20042;-95
2023/10/27 07:10:16;;;;;;;12.88;2.00;;;;;;;19.12;100.00;96942.88;5018446;28;20496;-95
2023/10/27 07:12:43;;;;;;;10.98;2.95;;;;;;;19.12;100.00;96953.66;5015919;28;20050;-93
2023/10/27 07:15:10;;;;;;;10.32;1.77;;;;;;;18.88;100.00;96922.56;5018703;28;20068;-94
2023/10/27 07:17:35;;;;;;;11.32;2.95;;;;;;;18.99;100.00;96968.22;5017414;28;20054;-94
2023/10/27 07:20:03;;;;;;;11.55;2.25;;;;;;;18.62;100.00;96895.25;5021718;28;20054;-94
2023/10/27 07:22:30;;;;;;;15.52;2.00;;;;;;;19.01;100.00;96976.16;5021814;28;20053;-93
2023/10/27 07:24:56;;;;;;;8.07;2.00;;;;;;;19.04;100.00;96963.28;5021500;28;20514;-94
2023/10/27 07:27:22;;;;;;;7.57;2.05;;;;;;;18.98;100.00;96954.91;5020964;28;20045;-94
2023/10/27 07:29:48;;;;;;;8.95;2.17;;;;;;;18.66;100.00;96919.06;5020862;28;20052;-95
2023/10/27 07:32:13;;;;;;;12.35;2.10;;;;;;;19.08;100.00;96997.06;5020962;28;20041;-95
2023/10/27 07:34:39;;;;;;;9.25;1.67;;;;;;;18.90;100.00;96987.06;5020037;28;20092;-94
2023/10/27 07:37:06;;;;;;;12.30;2.50;;;;;;;18.66;100.00;96940.59;5021661;28;20049;-94
2023/10/27 07:39:34;;;;;;;18.27;2.60;;;;;;;18.64;100.00;96937.19;5021378;28;20502;-94
2023/10/27 07:42:00;;;;;;;8.43;2.00;;;;;;;19.06;100.00;96988.25;5026870;28;20488;-95
2023/10/27 07:44:25;;;;;;;14.52;1.98;;;;;;;19.09;100.00;96989.81;5019656;28;20092;-93
2023/10/27 07:46:52;;;;;;;9.02;2.10;;;;;;;19.02;100.00;96965.28;5019625;28;20431;-93
2023/10/27 07:49:18;;;;;;;11.40;1.63;;;;;;;18.94;100.00;96962.41;5021763;28;20076;-94
2023/10/27 07:51:44;;;;;;;11.10;2.63;;;;;;;19.12;100.00;96988.69;5052317;28;20100;-94
2023/10/27 07:54:10;;;;;;;13.35;2.47;;;;;;;18.88;100.00;96949.50;5028052;28;20042;-93
2023/10/27 07:56:37;;;;;;;13.13;2.45;;;;;;;19.12;100.00;96965.28;5022690;28;20042;-93
2023/10/27 07:59:03;;;;;;;12.63;2.25;;;;;;;19.11;100.00;96963.59;5013239;28;20048;-94
2023/10/27 08:01:29;;;;;;;14.38;2.15;;;;;;;19.45;100.00;96987.44;5018855;28;20128;-93
2023/10/27 08:03:56;;;;;;;14.63;2.25;;;;;;;19.36;100.00;96956.78;5022261;28;20072;-94
2023/10/27 08:06:21;;;;;;;10.77;2.75;;;;;;;19.32;100.00;96955.38;5023032;28;20049;-94
2023/10/27 08:08:47;;;;;;;11.32;2.40;;;;;;;19.48;100.00;96955.66;5023660;28;20053;-93
2023/10/27 08:11:17;;;;;;;11.73;2.00;;;;;;;19.81;100.00;96960.81;5022465;28;20086;-93
2023/10/27 08:13:45;;;;;;;12.38;2.63;;;;;;;20.17;100.00;96999.66;5037924;28;20064;-93
2023/10/27 08:16:12;;;;;;;10.35;2.15;;;;;;;20.31;100.00;96991.09;5022894;28;20047;-94
2023/10/27 08:18:38;;;;;;;11.20;2.85;;;;;;;20.26;100.00;96969.09;5023778;28;20051;-95
2023/10/27 08:21:04;;;;;;;13.07;2.78;;;;;;;20.26;100.00;96962.84;5023333;28;20132;-92
2023/10/27 08:23:30;;;;;;;10.10;2.03;;;;;;;20.45;100.00;97010.50;5022679;28;20042;-92
2023/10/27 08:25:56;;;;;;;9.75;2.40;;;;;;;20.63;100.00;97025.00;5022820;28;20042;-93
2023/10/27 08:28:22;;;;;;;16.63;2.92;;;;;;;20.67;100.00;97012.91;5022598;28;20071;-93
2023/10/27 08:30:49;;;;;;;14.43;2.15;;;;;;;20.53;100.00;96968.28;5025468;28;20059;-93
2023/10/27 08:33:15;;;;;;;12.00;3.70;;;;;;;20.51;100.00;96966.72;5024500;28;20040;-94
2023/10/27 08:35:41;;;;;;;17.45;4.97;;;;;;;20.82;100.00;97005.19;5022876;28;20128;-95
2023/10/27 08:38:07;;;;;;;21.80;6.40;;;;;;;20.71;100.00;96990.00;5023158;28;20387;-93
2023/10/27 08:40:34;;;;;;;50.90;18.48;;;;;;;20.90;100.00;97021.47;5023209;28;20060;-93
2023/10/27 08:43:02;;;;;;;13.80;3.58;;;;;;;20.75;100.00;96970.78;5022883;28;20056;-94
2023/10/27 08:45:29;;;;;;;10.60;2.25;;;;;;;21.06;100.00;96969.50;5023891;28;20107;-93
2023/10/27 08:48:00;;;;;;;10.43;2.80;;;;;;;21.26;100.00;96985.59;5023013;28;20091;-94
2023/10/27 08:50:26;;;;;;;15.55;2.97;;;;;;;21.46;100.00;97027.75;5023086;28;20132;-93
2023/10/27 08:52:52;;;;;;;18.10;3.75;;;;;;;21.11;100.00;96994.22;5023487;28;20076;-94
2023/10/27 08:55:20;;;;;;;13.60;3.25;;;;;;;21.13;100.00;96997.59;5024269;28;20124;-95
2023/10/27 08:57:46;;;;;;;20.25;2.65;;;;;;;21.59;100.00;97059.84;5023300;28;20046;-93
2023/10/27 09:00:16;;;;;;;15.05;2.95;;;;;;;21.18;100.00;97021.47;5024101;28;20061;-94
2023/10/27 09:02:42;;;;;;;11.13;1.63;;;;;;;21.57;100.00;97015.84;5025142;28;20053;-94
2023/10/27 09:05:10;;;;;;;12.57;2.03;;;;;;;21.43;100.00;97017.25;5024194;28;20041;-94
2023/10/27 09:07:37;;;;;;;19.40;1.83;;;;;;;21.27;100.00;97027.84;5024750;28;20038;-94
2023/10/27 09:10:04;;;;;;;11.45;2.55;;;;;;;21.46;100.00;97060.19;5042602;28;20050;-93
2023/10/27 09:12:31;;;;;;;15.02;2.17;;;;;;;21.78;100.00;97066.13;5023715;28;20075;-94
2023/10/27 09:15:04;;;;;;;15.85;2.58;;;;;;;21.63;100.00;97031.47;5024980;28;20482;-94
2023/10/27 09:17:31;;;;;;;12.15;1.95;;;;;;;21.72;100.00;97068.44;5051604;28;20048;-93
2023/10/27 09:20:05;;;;;;;10.40;2.03;;;;;;;21.47;100.00;97086.25;5046470;28;20053;-94
2023/10/27 09:22:32;;;;;;;13.13;1.65;;;;;;;21.38;100.00;97094.38;5022849;28;20040;-93
2023/10/27 09:25:14;;;;;;;14.90;2.40;;;;;;;21.44;100.00;97089.25;5015873;28;20034;-94
2023/10/27 09:27:44;;;;;;;15.70;2.03;;;;;;;21.48;100.00;97087.09;5022395;28;20172;-95
2023/10/27 09:30:12;;;;;;;13.20;2.33;;;;;;;21.18;100.00;97075.53;5015774;28;20054;-96
2023/10/27 09:32:40;;;;;;;11.73;2.42;;;;;;;20.92;100.00;97042.94;5020024;28;20061;-94
2023/10/27 09:35:09;;;;;;;11.32;1.88;;;;;;;21.02;100.00;97092.41;5015248;28;20026;-93
2023/10/27 09:37:37;;;;;;;7.45;1.85;;;;;;;21.01;100.00;97068.22;5021738;28;20050;-96
2023/10/27 09:40:06;;;;;;;10.88;1.27;;;;;;;21.18;100.00;97080.94;5022232;28;20360;-94
2023/10/27 09:42:37;;;;;;;18.83;1.60;;;;;;;20.93;100.00;97059.03;5020362;28;20049;-94
2023/10/27 09:45:07;;;;;;;16.75;2.47;;;;;;;21.00;100.00;97078.19;5021243;28;20057;-94
2023/10/27 09:47:37;;;;;;;13.20;1.75;;;;;;;21.07;100.00;97109.00;5021877;28;20041;-95
2023/10/27 09:50:06;;;;;;;6.63;1.77;;;;;;;20.72;100.00;97071.88;5039982;28;20486;-96
2023/10/27 09:52:33;;;;;;;12.82;1.50;;;;;;;20.91;100.00;97108.81;5022438;28;20049;-95
2023/10/27 09:55:02;;;;;;;10.35;1.80;;;;;;;21.00;100.00;97121.44;5023211;28;20583;-96
2023/10/27 09:57:28;;;;;;;7.90;1.70;;;;;;;20.46;100.00;97123.78;5024081;28;20530;-94
2023/10/27 09:59:56;;;;;;;12.75;2.33;;;;;;;20.52;100.00;97085.41;5024546;28;20041;-95
2023/10/27 10:02:23;;;;;;;10.88;1.45;;;;;;;20.73;100.00;97100.59;5024677;28;20049;-94
2023/10/27 10:05:00;;;;;;;14.48;2.15;;;;;;;20.76;100.00;97092.22;5046637;28;20423;-95
2023/10/27 10:07:33;;;;;;;12.02;1.40;;;;;;;20.76;100.00;97105.72;5023669;28;20075;-94
2023/10/27 10:10:20;;;;;;;10.55;1.50;;;;;;;20.85;100.00;97129.16;5025463;28;20117;-95
2023/10/27 10:12:59;;;;;;;11.48;1.83;;;;;;;20.55;100.00;97111.25;5025088;28;20049;-94
2023/10/27 10:15:26;;;;;;;11.38;2.20;;;;;;;20.46;100.00;97085.13;5024654;28;20080;-93
2023/10/27 10:17:52;;;;;;;10.05;1.35;;;;;;;20.52;100.00;97089.97;5024317;28;20072;-95
2023/10/27 10:20:58;;;;;;;13.52;1.75;;;;;;;20.89;100.00;97145.94;5024942;28;20046;-94
2023/10/27 10:23:54;;;;;;;13.77;1.83;;;;;;;20.82;100.00;97117.78;5011465;28;20133;-94
2023/10/27 10:26:42;;;;;;;7.55;1.10;;;;;;;20.92;100.00;97138.34;5014735;28;20395;-92
2023/10/27 10:29:29;;;;;;;7.80;1.88;;;;;;;21.18;100.00;97117.94;5022477;28;20049;-95
2023/10/27 10:32:30;;;;;;;6.57;1.02;;;;;;;20.79;100.00;97085.66;5004006;28;20141;-94
2023/10/27 10:35:23;;;;;;;11.35;2.38;;;;;;;21.42;100.00;97150.75;5018983;28;20517;-94
2023/10/27 10:37:52;;;;;;;8.13;2.20;;;;;;;20.90;100.00;97123.31;4926738;29;20127;-96
2023/10/27 10:40:22;;;;;;;13.35;1.40;;;;;;;20.68;100.00;97097.47;4928791;28;20051;-95
2023/10/27 10:43:23;;;;;;;16.80;1.52;;;;;;;21.06;100.00;97168.66;4930074;29;20047;-94
2023/10/27 10:45:53;;;;;;;9.82;1.75;;;;;;;20.72;100.00;97105.16;4934300;28;20060;-96
2023/10/27 10:48:21;;;;;;;11.02;2.08;;;;;;;20.41;100.00;97099.06;4929555;29;20043;-94
2023/10/27 10:50:50;;;;;;;11.00;1.48;;;;;;;21.03;100.00;97150.00;4927392;29;20039;-93
2023/10/27 10:53:19;;;;;;;14.52;1.95;;;;;;;20.89;100.00;97124.31;4926352;28;20044;-96
2023/10/27 10:55:46;;;;;;;8.90;1.70;;;;;;;20.93;100.00;97110.34;4926386;29;20055;-95
2023/10/27 10:58:23;;;;;;;11.23;1.88;;;;;;;21.22;100.00;97138.28;4931211;29;20138;-95
2023/10/27 11:00:49;;;;;;;12.30;1.70;;;;;;;21.10;100.00;97121.38;4927216;29;20051;-94
2023/10/27 11:03:16;;;;;;;14.00;2.08;;;;;;;21.36;100.00;97185.59;4910363;29;20079;-94
2023/10/27 11:05:42;;;;;;;13.20;1.50;;;;;;;20.78;100.00;97110.97;4909262;29;20079;-95
2023/10/27 11:08:09;;;;;;;19.10;2.05;;;;;;;20.99;100.00;97129.66;4910561;29;20545;-95
2023/10/27 11:10:35;;;;;;;17.23;1.75;;;;;;;20.78;100.00;97116.38;4911755;29;20056;-95
2023/10/27 11:13:03;;;;;;;12.65;1.17;;;;;;;21.31;100.00;97170.66;4937775;28;20042;-94
2023/10/27 11:15:55;;;;;;;11.13;1.52;;;;;;;21.44;100.00;97177.66;4999264;28;20404;-96
2023/10/27 11:18:21;;;;;;;7.68;2.08;;;;;;;21.27;100.00;97154.91;4993775;28;20061;-94
2023/10/27 11:20:49;;;;;;;9.70;1.67;;;;;;;21.09;100.00;97154.81;5005753;28;20132;-95
2023/10/27 11:23:17;;;;;;;11.82;1.85;;;;;;;20.79;100.00;97131.59;5008930;28;20045;-96